createdAt,value
2018-06-22T00:02:33.248Z,90.90
2018-06-22T00:06:27.636Z,91.00
2018-06-22T00:10:21.728Z,90.90
2018-06-22T00:14:15.722Z,90.90
2018-06-22T00:18:09.690Z,90.90
2018-06-22T00:30:46.178Z,91.00
2018-06-22T00:34:40.283Z,91.30
2018-06-22T00:38:34.339Z,91.60
2018-06-22T00:42:28.276Z,92.00
2018-06-22T00:46:22.317Z,92.20
2018-06-22T00:50:16.451Z,92.40
2018-06-22T00:54:16.071Z,92.50
2018-06-22T00:58:10.059Z,92.60
2018-06-22T01:02:04.025Z,92.70
2018-06-22T01:05:58.143Z,93.00
2018-06-22T01:09:52.418Z,93.10
2018-06-22T01:13:46.407Z,93.20
2018-06-22T01:17:40.420Z,93.50
2018-06-22T01:21:34.497Z,93.60
2018-06-22T01:25:30.368Z,93.70
2018-06-22T01:29:31.048Z,93.60
2018-06-22T01:33:25.244Z,94.00
2018-06-22T01:37:19.310Z,93.60
2018-06-22T01:41:13.375Z,93.20
2018-06-22T01:45:07.500Z,93.30
2018-06-22T01:49:01.985Z,93.20
2018-06-22T01:52:55.869Z,93.10
2018-06-22T01:56:51.080Z,93.00
2018-06-22T02:00:48.791Z,93.00
2018-06-22T02:04:52.278Z,93.00
2018-06-22T02:08:46.449Z,93.00
2018-06-22T02:12:40.568Z,92.70
2018-06-22T02:16:35.456Z,93.10
2018-06-22T02:20:29.516Z,92.70
2018-06-22T02:24:23.820Z,92.50
2018-06-22T02:32:11.471Z,92.40
2018-06-22T02:36:05.692Z,92.40
2018-06-22T02:40:00.809Z,92.40
2018-06-22T02:43:54.402Z,92.30
2018-06-22T02:47:48.414Z,92.40
2018-06-22T02:51:43.400Z,92.60
2018-06-22T02:55:37.527Z,92.70
2018-06-22T02:59:31.668Z,93.00
2018-06-22T03:03:26.300Z,93.00
2018-06-22T03:07:21.669Z,92.80
2018-06-22T03:11:15.798Z,92.80
2018-06-22T03:15:09.839Z,92.80
2018-06-22T03:19:04.254Z,92.70
2018-06-22T03:22:58.360Z,92.70
2018-06-22T03:26:52.311Z,92.80
2018-06-22T03:30:46.614Z,92.70
2018-06-22T03:34:40.555Z,92.90
2018-06-22T03:38:35.301Z,92.90
2018-06-22T03:42:29.489Z,93.10
2018-06-22T03:46:23.558Z,93.20
2018-06-22T03:50:17.674Z,93.10
2018-06-22T03:54:11.626Z,93.10
2018-06-22T03:58:05.907Z,93.10
2018-06-22T04:02:00.002Z,93.00
2018-06-22T04:05:54.180Z,92.90
2018-06-22T04:13:42.109Z,92.40
2018-06-22T04:17:42.346Z,92.30
2018-06-22T04:21:36.458Z,92.20
2018-06-22T04:25:30.576Z,92.10
2018-06-22T04:29:24.971Z,92.10
2018-06-22T04:33:19.317Z,91.90
2018-06-22T04:37:13.310Z,91.70
2018-06-22T04:41:08.178Z,91.70
2018-06-22T04:45:01.678Z,91.60
2018-06-22T04:48:55.668Z,91.50
2018-06-22T04:52:49.782Z,91.50
2018-06-22T04:56:43.721Z,91.60
2018-06-22T05:00:37.769Z,91.50
2018-06-22T05:04:31.879Z,91.40
2018-06-22T05:08:25.983Z,91.40
2018-06-22T05:12:19.955Z,91.40
2018-06-22T05:16:15.307Z,91.50
2018-06-22T05:20:09.563Z,91.70
2018-06-22T05:24:03.942Z,91.90
2018-06-22T05:27:58.057Z,92.10
2018-06-22T05:31:52.316Z,92.10
2018-06-22T05:35:46.319Z,92.10
2018-06-22T05:39:43.062Z,91.80
2018-06-22T05:43:38.056Z,91.70
2018-06-22T05:47:31.608Z,91.60
2018-06-22T05:51:25.803Z,91.70
2018-06-22T05:55:19.830Z,91.60
2018-06-22T05:59:15.758Z,92.00
2018-06-22T06:03:09.793Z,92.40
2018-06-22T06:07:03.842Z,93.00
2018-06-22T06:10:58.487Z,93.10
2018-06-22T06:14:52.495Z,93.10
2018-06-22T06:18:46.922Z,93.60
2018-06-22T06:22:41.097Z,93.30
2018-06-22T06:26:35.431Z,93.40
2018-06-22T06:30:31.739Z,93.20
2018-06-22T06:34:25.865Z,93.50
2018-06-22T06:38:20.075Z,93.50
2018-06-22T06:42:17.066Z,93.30
2018-06-22T06:50:24.971Z,92.80
2018-06-22T06:54:19.508Z,93.10
2018-06-22T06:58:13.896Z,92.80
2018-06-22T07:02:09.267Z,92.90
2018-06-22T07:06:04.133Z,92.90
2018-06-22T07:10:00.198Z,93.80
2018-06-22T07:13:55.453Z,93.20
2018-06-22T07:17:50.890Z,92.60
2018-06-22T07:25:49.409Z,90.80
2018-06-22T07:29:45.607Z,90.00
2018-06-22T07:33:40.269Z,88.70
2018-06-22T07:37:36.848Z,91.10
2018-06-22T07:41:33.659Z,91.90
2018-06-22T07:45:27.538Z,92.50
2018-06-22T07:49:22.038Z,92.40
2018-06-22T07:53:16.723Z,92.50
2018-06-22T07:57:11.042Z,92.50
2018-06-22T08:01:06.714Z,93.10
2018-06-22T08:05:05.008Z,92.30
2018-06-22T08:08:59.610Z,94.00
2018-06-22T08:13:01.352Z,95.20
2018-06-22T08:16:55.976Z,95.40
2018-06-22T08:20:51.138Z,95.40
2018-06-22T08:24:44.732Z,94.90
2018-06-22T08:28:38.897Z,94.00
2018-06-22T08:32:40.363Z,93.50
2018-06-22T08:36:34.377Z,93.70
2018-06-22T08:40:27.114Z,93.20
2018-06-22T08:44:22.976Z,92.50
2018-06-22T08:48:16.798Z,90.80
2018-06-22T08:52:11.516Z,89.50
2018-06-22T08:56:04.935Z,87.80
2018-06-22T08:59:59.116Z,88.50
2018-06-22T09:03:59.800Z,90.00
2018-06-22T09:07:59.264Z,90.40
2018-06-22T09:11:53.850Z,90.40
2018-06-22T09:15:48.894Z,91.10
2018-06-22T09:20:02.044Z,90.80
2018-06-22T09:23:59.277Z,92.00
2018-06-22T09:28:07.387Z,92.20
2018-06-22T09:32:21.509Z,90.40
2018-06-22T09:36:16.502Z,90.70
2018-06-22T09:40:13.445Z,90.40
2018-06-22T09:44:07.517Z,89.40
2018-06-22T09:48:01.511Z,87.60
2018-06-22T09:51:56.392Z,85.10
2018-06-22T09:55:51.296Z,85.50
2018-06-22T09:59:45.113Z,87.70
2018-06-22T10:05:13.755Z,86.70
2018-06-22T10:09:11.741Z,87.80
2018-06-22T10:13:06.302Z,90.00
2018-06-22T10:17:00.868Z,90.40
2018-06-22T10:21:00.990Z,93.00
2018-06-22T10:24:56.655Z,93.50
2018-06-22T10:28:51.997Z,95.00
2018-06-22T10:32:46.138Z,94.20
2018-06-22T10:36:40.536Z,94.00
2018-06-22T10:40:34.638Z,93.70
2018-06-22T10:44:28.432Z,93.20
2018-06-22T10:48:21.784Z,93.20
2018-06-22T10:52:15.417Z,92.30
2018-06-22T10:56:08.691Z,90.90
2018-06-22T11:00:03.006Z,88.60
2018-06-22T11:03:56.439Z,89.50
2018-06-22T11:07:50.002Z,90.00
2018-06-22T11:11:43.347Z,88.60
2018-06-22T11:15:37.609Z,89.80
2018-06-22T11:19:31.088Z,88.80
2018-06-22T11:23:27.760Z,85.50
2018-06-22T11:27:22.678Z,84.50
2018-06-22T11:31:19.916Z,84.60
2018-06-22T11:35:13.474Z,84.10
2018-06-22T11:39:12.082Z,83.40
2018-06-22T11:43:06.288Z,82.40
2018-06-22T11:46:59.310Z,80.50
2018-06-22T11:50:52.738Z,78.90
2018-06-22T11:54:46.839Z,77.30
2018-06-22T11:58:40.028Z,78.80
2018-06-22T12:02:34.072Z,80.10
2018-06-22T12:06:28.912Z,80.20
2018-06-22T12:10:22.407Z,81.80
2018-06-22T12:14:15.674Z,79.10
2018-06-22T12:18:08.984Z,77.70
2018-06-22T12:22:02.666Z,75.70
2018-06-22T12:25:55.945Z,74.70
2018-06-22T12:29:49.883Z,76.70
2018-06-22T12:35:35.262Z,76.70
2018-06-22T12:39:31.711Z,76.30
2018-06-22T12:43:26.557Z,75.20
2018-06-22T12:47:20.337Z,76.10
2018-06-22T12:51:14.516Z,78.10
2018-06-22T12:55:08.720Z,79.30
2018-06-22T12:59:03.260Z,75.60
2018-06-22T13:02:57.295Z,74.90
2018-06-22T13:06:51.256Z,74.40
2018-06-22T13:10:45.405Z,79.40
2018-06-22T13:14:40.386Z,85.70
2018-06-22T13:18:33.910Z,89.60
2018-06-22T13:22:27.277Z,90.00
2018-06-22T13:26:20.628Z,88.70
2018-06-22T13:30:13.976Z,93.00
2018-06-22T13:34:07.322Z,93.40
2018-06-22T13:38:02.259Z,92.90
2018-06-22T13:41:58.842Z,90.90
2018-06-22T13:45:51.688Z,84.40
2018-06-22T13:49:45.010Z,82.10
2018-06-22T13:53:38.585Z,77.60
2018-06-22T13:57:32.931Z,68.10
2018-06-22T14:08:24.384Z,62.30
2018-06-22T14:12:18.619Z,66.10
2018-06-22T14:16:12.992Z,68.80
2018-06-22T14:20:07.207Z,76.90
2018-06-22T14:24:01.473Z,80.00
2018-06-22T14:27:56.499Z,79.00
2018-06-22T14:31:50.603Z,77.30
2018-06-22T14:35:45.148Z,77.50
2018-06-22T14:39:39.869Z,76.00
2018-06-22T14:43:34.200Z,74.70
2018-06-22T14:47:28.675Z,75.10
2018-06-22T14:51:23.344Z,77.40
2018-06-22T14:55:24.109Z,76.00
2018-06-22T14:59:23.562Z,72.60
2018-06-22T15:03:23.205Z,71.90
2018-06-22T15:07:22.904Z,70.60
2018-06-22T15:11:17.189Z,69.70
2018-06-22T15:15:11.338Z,70.90
2018-06-22T15:19:05.416Z,72.20
2018-06-22T15:23:00.166Z,71.20
2018-06-22T15:26:54.543Z,68.40
2018-06-22T15:30:48.622Z,72.10
2018-06-22T15:34:47.820Z,70.50
2018-06-22T15:38:47.175Z,70.50
2018-06-22T15:42:46.812Z,68.90
2018-06-22T15:50:45.005Z,72.80
2018-06-22T15:54:45.396Z,74.00
2018-06-22T15:58:39.673Z,73.80
2018-06-22T16:02:39.138Z,72.60
2018-06-22T16:06:33.226Z,70.30
2018-06-22T16:10:27.441Z,68.00
2018-06-22T16:14:26.690Z,66.00
2018-06-22T16:18:26.703Z,66.10
2018-06-22T16:22:30.250Z,62.50
2018-06-22T16:26:29.736Z,62.00
2018-06-22T16:30:24.499Z,63.30
2018-06-22T16:34:18.501Z,64.40
2018-06-22T16:38:12.683Z,67.70
2018-06-22T16:42:06.801Z,69.60
2018-06-22T16:46:01.051Z,69.90
2018-06-22T16:49:55.198Z,66.70
2018-06-22T16:53:49.171Z,65.80
2018-06-22T16:57:43.276Z,66.70
2018-06-22T17:01:37.402Z,68.60
2018-06-22T17:05:31.613Z,71.00
2018-06-22T17:09:31.182Z,71.90
2018-06-22T17:13:30.373Z,72.80
2018-06-22T17:17:29.760Z,73.20
2018-06-22T17:21:23.760Z,73.40
2018-06-22T17:25:17.797Z,73.60
2018-06-22T17:29:11.886Z,74.30
2018-06-22T17:33:06.694Z,72.60
2018-06-22T17:37:01.376Z,70.40
2018-06-22T17:40:55.720Z,70.40
2018-06-22T17:44:50.331Z,71.60
2018-06-22T17:48:45.211Z,70.10
2018-06-22T17:52:39.811Z,68.80
2018-06-22T17:56:33.910Z,69.10
2018-06-22T18:00:33.153Z,72.00
2018-06-22T18:04:32.498Z,74.30
2018-06-22T18:08:32.093Z,75.60
2018-06-22T18:12:31.426Z,76.80
2018-06-22T18:16:25.527Z,77.30
2018-06-22T18:20:19.617Z,78.90
2018-06-22T18:24:13.579Z,79.50
2018-06-22T18:28:07.729Z,79.60
2018-06-22T18:32:01.892Z,81.20
2018-06-22T18:35:56.182Z,83.10
2018-06-22T18:39:50.300Z,84.80
2018-06-22T18:43:49.608Z,86.40
2018-06-22T18:47:43.310Z,89.80
2018-06-22T18:51:37.356Z,91.10
2018-06-22T18:55:37.091Z,92.40
2018-06-22T18:59:36.593Z,93.50
2018-06-22T19:03:35.827Z,93.90
2018-06-22T19:07:29.866Z,94.50
2018-06-22T19:11:24.105Z,94.70
2018-06-22T19:15:18.794Z,95.10
2018-06-22T19:19:13.594Z,95.50
2018-06-22T19:23:07.941Z,96.10
2018-06-22T19:27:02.975Z,96.70
2018-06-22T19:34:56.225Z,97.40
2018-06-22T19:38:50.866Z,97.70
2018-06-22T19:42:45.262Z,97.80
2018-06-22T19:46:44.400Z,96.40
2018-06-22T19:50:43.747Z,95.80
2018-06-22T19:54:37.719Z,95.70
2018-06-22T19:58:31.707Z,95.70
2018-06-22T20:02:25.714Z,96.20
2018-06-22T20:06:19.716Z,96.60
2018-06-22T20:10:13.968Z,97.00
2018-06-22T20:14:07.953Z,97.40
2018-06-22T20:18:02.069Z,97.80
2018-06-22T20:21:56.434Z,98.30
2018-06-22T20:25:50.911Z,98.40
2018-06-22T20:29:44.841Z,98.80
2018-06-22T20:33:38.866Z,99.40
2018-06-22T20:37:38.623Z,99.90
2018-06-22T20:41:38.035Z,99.90
2018-06-22T20:45:37.310Z,99.90
2018-06-22T20:49:36.893Z,99.90
2018-06-22T20:53:30.889Z,99.90
2018-06-22T20:57:24.960Z,99.90
2018-06-22T21:01:19.065Z,99.90
2018-06-22T21:05:12.983Z,99.90
2018-06-22T21:09:08.020Z,99.90
2018-06-22T21:16:55.818Z,99.90
2018-06-22T21:20:55.113Z,99.90
2018-06-22T21:24:49.214Z,99.90
2018-06-22T21:28:48.534Z,99.90
2018-06-22T21:32:48.122Z,99.90
2018-06-22T21:37:50.767Z,99.90
2018-06-22T21:41:45.093Z,99.90
2018-06-22T21:45:38.659Z,99.90
2018-06-22T21:49:32.798Z,99.90
2018-06-22T21:53:26.855Z,99.90
2018-06-22T21:57:21.313Z,99.90
2018-06-22T22:01:15.249Z,99.90
2018-06-22T22:05:09.300Z,99.90
2018-06-22T22:09:03.355Z,99.90
2018-06-22T22:12:58.193Z,99.90
2018-06-22T22:16:53.184Z,99.90
2018-06-22T22:20:47.247Z,99.90
2018-06-22T22:24:41.787Z,99.90
2018-06-22T22:28:35.911Z,99.90
2018-06-22T22:32:29.886Z,99.90
2018-06-22T22:36:24.238Z,99.90
2018-06-22T22:40:18.351Z,99.90
2018-06-22T22:44:13.004Z,99.90
2018-06-22T22:48:06.610Z,99.90
2018-06-22T22:52:00.740Z,99.90
2018-06-22T22:55:55.011Z,99.90
2018-06-22T22:59:49.031Z,99.90
2018-06-22T23:03:42.971Z,99.90
2018-06-22T23:15:24.664Z,99.90
2018-06-22T23:19:18.547Z,99.90
2018-06-22T23:23:23.888Z,99.90
2018-06-22T23:27:18.085Z,99.90
2018-06-22T23:31:12.620Z,99.90
2018-06-22T23:35:06.598Z,99.90
2018-06-22T23:39:00.746Z,99.90
2018-06-22T23:42:54.914Z,99.90
2018-06-22T23:46:48.979Z,99.90
2018-06-22T23:50:42.899Z,99.90
2018-06-22T23:54:36.840Z,99.90
2018-06-22T23:58:30.856Z,99.90
